Time;durP1;ratioP1;P1;durP2;ratioP2;P2;SDS_P1;SDS_P2;PMS_P1;PMS_P2;Temp;Humidity;BMP_temperature;BMP_pressure;BME280_temperature;BME280_humidity;BME280_pressure;Samples;Min_cycle;Max_cycle;Signal;HPM_P1;HPM_P2
2023/08/20 00:01:22;;;;;;;12.52;8.88;;;15.30;99.90;;;;;;5150473;27;20034;-80
2023/08/20 00:03:49;;;;;;;11.52;8.18;;;15.30;99.90;;;;;;5151900;27;20034;-80
2023/08/20 00:06:15;;;;;;;12.52;9.02;;;15.30;99.90;;;;;;5115986;27;20042;-80
2023/08/20 00:08:41;;;;;;;10.45;9.00;;;15.30;99.90;;;;;;5116125;27;20037;-80
2023/08/20 00:11:08;;;;;;;13.68;8.13;;;15.20;99.90;;;;;;5116027;27;20509;-80
2023/08/20 00:13:33;;;;;;;13.07;8.82;;;15.20;99.90;;;;;;5133090;27;20045;-80
2023/08/20 00:16:00;;;;;;;14.65;7.40;;;15.20;99.90;;;;;;5116651;27;20400;-80
2023/08/20 00:18:26;;;;;;;15.52;8.90;;;15.20;99.90;;;;;;5151118;27;20034;-80
2023/08/20 00:20:53;;;;;;;16.30;8.45;;;15.10;99.90;;;;;;5133151;27;20121;-80
2023/08/20 00:23:19;;;;;;;14.55;7.50;;;15.10;99.90;;;;;;5151560;27;20054;-80
2023/08/20 00:25:45;;;;;;;15.40;9.07;;;15.10;99.90;;;;;;5132984;27;20083;-80
2023/08/20 00:28:10;;;;;;;12.27;8.30;;;15.10;99.90;;;;;;5150978;27;20050;-80
2023/08/20 00:30:36;;;;;;;9.48;7.43;;;15.10;99.90;;;;;;5136910;27;20031;-80
2023/08/20 00:33:02;;;;;;;16.00;8.82;;;15.10;99.90;;;;;;5129524;27;20038;-80
2023/08/20 00:35:28;;;;;;;10.75;7.80;;;15.10;99.90;;;;;;5112182;27;20654;-80
2023/08/20 00:37:53;;;;;;;15.65;8.88;;;15.00;99.90;;;;;;5095294;27;20097;-80
2023/08/20 00:40:19;;;;;;;12.75;7.68;;;15.00;99.90;;;;;;5130579;27;20074;-79
2023/08/20 00:42:45;;;;;;;11.30;8.38;;;15.00;99.90;;;;;;5111839;27;20078;-80
2023/08/20 00:45:10;;;;;;;13.13;7.80;;;15.00;99.90;;;;;;5138057;27;20684;-80
2023/08/20 00:47:38;;;;;;;14.18;9.10;;;15.00;99.90;;;;;;5128935;27;20039;-80
2023/08/20 00:50:06;;;;;;;11.68;8.48;;;15.00;99.90;;;;;;5130447;27;20047;-80
2023/08/20 00:52:33;;;;;;;18.08;9.50;;;14.90;99.90;;;;;;5095098;27;20050;-80
2023/08/20 00:54:59;;;;;;;15.73;9.50;;;14.90;99.90;;;;;;5093758;27;20043;-79
2023/08/20 00:57:26;;;;;;;12.60;9.75;;;14.90;99.90;;;;;;5111305;27;20064;-80
2023/08/20 00:59:53;;;;;;;14.60;8.93;;;14.90;99.90;;;;;;5102968;27;20095;-80
2023/08/20 01:02:18;;;;;;;15.90;9.32;;;14.90;99.90;;;;;;5094645;27;20112;-80
2023/08/20 01:04:46;;;;;;;16.63;9.40;;;14.80;99.90;;;;;;5130024;27;20069;-80
2023/08/20 01:07:17;;;;;;;16.50;10.18;;;14.80;99.90;;;;;;5094482;27;20035;-80
2023/08/20 01:10:08;;;;;;;11.73;9.13;;;14.80;99.90;;;;;;5111690;27;20046;-80
2023/08/20 01:12:35;;;;;;;17.45;9.85;;;14.80;99.90;;;;;;5094454;27;20397;-80
2023/08/20 01:15:00;;;;;;;13.48;8.20;;;14.80;99.90;;;;;;5129581;27;20157;-80
2023/08/20 01:17:26;;;;;;;13.68;8.75;;;14.80;99.90;;;;;;5094513;27;20080;-80
2023/08/20 01:19:52;;;;;;;15.65;10.00;;;14.70;99.90;;;;;;5128490;27;20046;-80
2023/08/20 01:22:47;;;;;;;13.13;9.07;;;14.70;99.90;;;;;;5107850;28;20192;-80
2023/08/20 01:25:44;;;;;;;15.50;10.45;;;14.70;99.90;;;;;;5090956;28;20055;-80
2023/08/20 01:28:30;;;;;;;13.18;9.50;;;14.70;99.90;;;;;;5107365;28;20044;-80
2023/08/20 01:30:57;;;;;;;10.18;8.82;;;14.70;99.90;;;;;;5107736;28;20404;-80
2023/08/20 01:33:26;;;;;;;16.75;9.77;;;14.70;99.90;;;;;;5107712;28;20455;-80
2023/08/20 01:35:53;;;;;;;13.55;10.07;;;14.70;99.90;;;;;;5107724;28;20607;-80
2023/08/20 01:38:18;;;;;;;16.50;10.18;;;14.70;99.90;;;;;;5107811;28;20046;-80
2023/08/20 01:40:44;;;;;;;19.63;11.65;;;14.70;99.90;;;;;;5107042;28;20032;-80
2023/08/20 01:43:10;;;;;;;17.83;10.13;;;14.70;99.90;;;;;;5107563;28;20039;-80
2023/08/20 01:45:36;;;;;;;21.98;10.95;;;14.70;99.90;;;;;;5107418;28;20034;-80
2023/08/20 01:48:03;;;;;;;18.17;10.65;;;14.70;99.90;;;;;;5108555;28;20070;-80
2023/08/20 01:50:29;;;;;;;15.18;10.60;;;14.70;99.90;;;;;;5107203;28;20122;-80
2023/08/20 01:52:55;;;;;;;15.85;10.88;;;14.70;99.90;;;;;;5090158;28;20036;-80
2023/08/20 01:55:20;;;;;;;20.27;11.23;;;14.70;99.90;;;;;;5106632;28;20031;-80
2023/08/20 01:57:46;;;;;;;14.48;9.85;;;14.70;99.90;;;;;;5107071;28;20473;-80
2023/08/20 02:00:12;;;;;;;15.00;10.68;;;14.70;99.90;;;;;;5103714;28;20035;-80
2023/08/20 02:02:38;;;;;;;17.88;10.52;;;14.70;99.90;;;;;;5127814;28;20046;-80
2023/08/20 02:05:04;;;;;;;16.25;10.82;;;14.70;99.90;;;;;;5111877;27;20039;-80
2023/08/20 02:07:29;;;;;;;18.48;12.32;;;14.70;99.90;;;;;;5133594;27;20039;-80
2023/08/20 02:09:55;;;;;;;18.50;11.48;;;14.70;99.90;;;;;;5131778;27;20070;-80
2023/08/20 02:12:21;;;;;;;16.38;10.52;;;14.60;99.90;;;;;;5132017;27;20039;-80
2023/08/20 02:14:46;;;;;;;13.88;10.48;;;14.60;99.90;;;;;;5114637;27;20043;-80
2023/08/20 02:17:12;;;;;;;15.82;10.48;;;14.60;99.90;;;;;;5132078;27;20404;-80
2023/08/20 02:19:38;;;;;;;18.25;11.40;;;14.60;99.90;;;;;;5114833;27;20133;-80
2023/08/20 02:22:04;;;;;;;19.35;13.63;;;14.60;99.90;;;;;;5131944;27;20056;-79
2023/08/20 02:24:30;;;;;;;19.48;12.40;;;14.50;99.90;;;;;;5131373;27;20035;-80
2023/08/20 02:26:56;;;;;;;20.48;13.40;;;14.60;99.90;;;;;;5133051;27;20043;-80
2023/08/20 02:29:21;;;;;;;21.10;13.68;;;14.50;99.90;;;;;;5120671;27;20067;-80
2023/08/20 02:31:47;;;;;;;23.48;11.43;;;14.50;99.90;;;;;;5112540;28;20074;-80
2023/08/20 02:34:13;;;;;;;18.83;12.68;;;14.50;99.90;;;;;;5111149;28;20570;-80
2023/08/20 02:36:38;;;;;;;16.90;12.30;;;14.50;99.90;;;;;;5128167;27;20581;-80
2023/08/20 02:39:07;;;;;;;19.42;13.00;;;14.50;99.90;;;;;;5110815;28;20081;-79
2023/08/20 02:41:36;;;;;;;23.20;13.50;;;14.50;99.90;;;;;;5111276;28;20051;-80
2023/08/20 02:44:02;;;;;;;20.33;13.63;;;14.50;99.90;;;;;;5110959;28;20040;-80
2023/08/20 02:46:28;;;;;;;24.83;14.95;;;14.60;99.90;;;;;;5112170;28;20173;-80
2023/08/20 02:48:54;;;;;;;25.13;15.50;;;14.60;99.90;;;;;;5110976;28;20497;-80
2023/08/20 02:51:19;;;;;;;26.33;16.25;;;14.60;99.90;;;;;;5110827;28;20035;-80
2023/08/20 02:53:45;;;;;;;16.83;13.02;;;14.60;99.90;;;;;;5110398;28;20051;-80
2023/08/20 02:56:11;;;;;;;22.00;15.18;;;14.60;99.90;;;;;;5127767;27;20048;-80
2023/08/20 02:58:36;;;;;;;18.05;13.85;;;14.60;99.90;;;;;;5120797;27;20388;-80
2023/08/20 03:01:02;;;;;;;20.98;14.55;;;14.60;99.90;;;;;;5113893;27;20039;-80
2023/08/20 03:03:28;;;;;;;20.38;12.48;;;14.60;99.90;;;;;;5131073;27;20661;-80
2023/08/20 03:05:54;;;;;;;18.15;13.02;;;14.50;99.90;;;;;;5132584;27;20127;-80
2023/08/20 03:08:19;;;;;;;22.33;14.77;;;14.50;99.90;;;;;;5130791;27;20045;-80
2023/08/20 03:10:45;;;;;;;24.63;14.88;;;14.50;99.90;;;;;;5131073;27;20042;-80
2023/08/20 03:13:11;;;;;;;18.80;13.35;;;14.50;99.90;;;;;;5131974;27;20039;-79
2023/08/20 03:15:37;;;;;;;20.10;13.13;;;14.50;99.90;;;;;;5132190;27;20027;-80
2023/08/20 03:18:03;;;;;;;17.02;13.13;;;14.40;99.90;;;;;;5112935;27;20035;-80
2023/08/20 03:20:30;;;;;;;18.73;13.65;;;14.40;99.90;;;;;;5113671;27;20138;-80
2023/08/20 03:22:56;;;;;;;18.00;13.50;;;14.40;99.90;;;;;;5130225;27;20051;-80
2023/08/20 03:25:22;;;;;;;19.45;14.73;;;14.40;99.90;;;;;;5132311;27;20142;-80
2023/08/20 03:27:49;;;;;;;21.83;16.10;;;14.40;99.90;;;;;;5123985;27;20040;-80
2023/08/20 03:30:15;;;;;;;18.33;14.25;;;14.40;99.90;;;;;;5110218;28;20491;-80
2023/08/20 03:32:40;;;;;;;24.13;17.40;;;14.40;99.90;;;;;;5126952;27;20039;-80
2023/08/20 03:35:06;;;;;;;22.92;15.18;;;14.30;99.90;;;;;;5110203;28;20077;-80
2023/08/20 03:37:32;;;;;;;22.58;16.27;;;14.30;99.90;;;;;;5110820;28;20096;-80
2023/08/20 03:39:57;;;;;;;21.40;15.38;;;14.30;99.90;;;;;;5109916;28;20635;-80
2023/08/20 03:42:23;;;;;;;18.58;15.57;;;14.60;99.90;;;;;;5111873;27;20036;-80
2023/08/20 03:44:49;;;;;;;18.42;14.55;;;14.30;99.90;;;;;;5144192;27;20051;-80
2023/08/20 03:47:15;;;;;;;21.38;16.80;;;14.30;99.90;;;;;;5092734;28;20036;-80
2023/08/20 03:49:41;;;;;;;20.05;14.60;;;14.30;99.90;;;;;;5093014;28;20040;-80
2023/08/20 03:52:06;;;;;;;19.15;14.55;;;14.20;99.90;;;;;;5109287;28;20031;-80
2023/08/20 03:54:33;;;;;;;19.52;16.35;;;14.20;99.90;;;;;;5109691;28;20044;-80
2023/08/20 03:56:58;;;;;;;25.25;15.98;;;14.30;99.90;;;;;;5092542;28;20036;-80
2023/08/20 03:59:24;;;;;;;18.75;14.40;;;14.20;99.90;;;;;;5129648;27;20034;-80
2023/08/20 04:01:50;;;;;;;19.65;14.73;;;14.30;99.90;;;;;;5113287;27;20035;-80
2023/08/20 04:04:15;;;;;;;20.23;14.93;;;14.20;99.90;;;;;;5129841;27;20039;-80
2023/08/20 04:06:41;;;;;;;19.08;15.43;;;14.10;99.90;;;;;;5130801;27;20042;-80
2023/08/20 04:09:09;;;;;;;16.48;13.43;;;14.30;99.90;;;;;;5130181;27;20047;-80
2023/08/20 04:11:34;;;;;;;19.55;15.07;;;14.10;99.90;;;;;;5129793;27;20042;-80
2023/08/20 04:14:00;;;;;;;20.27;14.75;;;14.20;99.90;;;;;;5129267;27;20031;-80
2023/08/20 04:16:26;;;;;;;21.52;14.82;;;14.10;99.90;;;;;;5092076;28;20039;-80
2023/08/20 04:18:52;;;;;;;17.27;15.48;;;14.10;99.90;;;;;;5108980;28;20078;-80
2023/08/20 04:21:17;;;;;;;22.35;13.48;;;14.10;99.90;;;;;;5108976;28;20358;-80
2023/08/20 04:23:43;;;;;;;17.83;13.30;;;14.30;99.90;;;;;;5130690;27;20598;-80
2023/08/20 04:26:09;;;;;;;18.25;14.50;;;14.10;99.90;;;;;;5112316;27;20424;-80
2023/08/20 04:28:34;;;;;;;23.92;14.90;;;14.10;99.90;;;;;;5123292;27;20031;-80
2023/08/20 04:31:00;;;;;;;23.95;15.35;;;14.10;99.90;;;;;;5151491;27;20031;-80
2023/08/20 04:33:26;;;;;;;23.23;15.32;;;14.30;99.90;;;;;;5132832;27;20042;-80
2023/08/20 04:35:52;;;;;;;19.00;13.65;;;14.10;99.90;;;;;;5150922;27;20027;-80
2023/08/20 04:38:18;;;;;;;19.17;13.93;;;14.10;99.90;;;;;;5115594;27;20125;-80
2023/08/20 04:40:47;;;;;;;18.30;12.73;;;14.10;99.90;;;;;;5132859;27;20038;-80
2023/08/20 04:43:13;;;;;;;18.38;13.88;;;14.10;99.90;;;;;;5132524;27;20035;-80
2023/08/20 04:45:38;;;;;;;17.52;12.88;;;14.10;99.90;;;;;;5132695;27;20030;-80
2023/08/20 04:48:04;;;;;;;15.98;13.43;;;14.10;99.90;;;;;;5141757;27;20047;-80
2023/08/20 04:50:30;;;;;;;20.95;13.52;;;14.20;99.90;;;;;;5111356;27;20063;-80
2023/08/20 04:52:55;;;;;;;16.88;12.52;;;14.10;99.90;;;;;;5130405;27;20031;-80
2023/08/20 04:55:21;;;;;;;17.90;14.32;;;14.20;99.90;;;;;;5112119;27;20041;-80
2023/08/20 04:57:47;;;;;;;22.35;13.95;;;14.20;99.90;;;;;;5111757;27;20078;-80
2023/08/20 05:00:13;;;;;;;20.15;15.40;;;14.30;99.90;;;;;;5112108;27;20035;-80
2023/08/20 05:02:38;;;;;;;19.05;14.50;;;14.20;99.90;;;;;;5130111;27;20500;-79
2023/08/20 05:05:04;;;;;;;17.73;15.15;;;14.20;99.90;;;;;;5131050;27;20050;-80
2023/08/20 05:07:30;;;;;;;22.10;14.80;;;14.30;99.90;;;;;;5111461;27;20035;-80
2023/08/20 05:09:55;;;;;;;19.92;14.13;;;14.30;99.90;;;;;;5150503;27;20121;-80
2023/08/20 05:12:21;;;;;;;19.50;12.25;;;14.40;99.90;;;;;;5132374;27;20424;-80
2023/08/20 05:14:47;;;;;;;16.58;13.90;;;14.40;99.90;;;;;;5150752;27;20041;-80
2023/08/20 05:17:12;;;;;;;18.05;13.77;;;14.40;99.90;;;;;;5113908;27;20048;-80
2023/08/20 05:19:38;;;;;;;20.30;13.27;;;14.50;99.90;;;;;;5128329;27;20039;-80
2023/08/20 05:22:04;;;;;;;17.20;13.35;;;14.50;99.90;;;;;;5129717;27;20051;-80
2023/08/20 05:24:29;;;;;;;20.52;13.50;;;14.60;99.90;;;;;;5111929;27;20046;-80
2023/08/20 05:27:16;;;;;;;19.75;14.02;;;14.60;99.90;;;;;;5111385;27;20042;-80
2023/08/20 05:29:42;;;;;;;24.15;13.23;;;14.70;99.90;;;;;;5094398;27;20048;-80
2023/08/20 05:32:08;;;;;;;24.17;16.10;;;14.70;99.90;;;;;;5129888;27;20043;-80
2023/08/20 05:34:34;;;;;;;23.42;13.35;;;14.80;99.90;;;;;;5127706;27;20035;-80
2023/08/20 05:37:00;;;;;;;23.20;13.20;;;14.80;99.90;;;;;;5119321;27;20035;-80
2023/08/20 05:39:26;;;;;;;16.95;12.93;;;14.90;99.90;;;;;;5110844;27;20045;-80
2023/08/20 05:41:55;;;;;;;21.20;13.15;;;15.00;99.90;;;;;;5111090;28;20426;-80
2023/08/20 05:44:21;;;;;;;18.17;14.48;;;15.00;99.90;;;;;;5111071;28;20050;-80
2023/08/20 05:46:47;;;;;;;20.35;13.45;;;15.20;99.90;;;;;;5110868;28;20140;-80
2023/08/20 05:49:15;;;;;;;27.08;14.98;;;15.30;99.90;;;;;;5110378;28;20039;-80
2023/08/20 05:51:42;;;;;;;22.95;15.77;;;15.70;99.90;;;;;;5129110;28;20498;-80
2023/08/20 05:54:08;;;;;;;18.95;13.73;;;16.80;99.90;;;;;;5110721;28;20027;-80
2023/08/20 05:56:33;;;;;;;18.00;11.52;;;18.00;99.90;;;;;;5128961;28;20370;-80
2023/08/20 05:58:59;;;;;;;18.63;9.68;;;19.30;99.90;;;;;;5110477;28;20043;-80
2023/08/20 06:01:24;;;;;;;12.25;8.45;;;20.40;99.90;;;;;;5126995;28;20134;-80
2023/08/20 06:03:50;;;;;;;10.73;9.10;;;21.50;99.90;;;;;;5127887;28;20035;-80
2023/08/20 06:06:16;;;;;;;11.68;7.65;;;22.40;99.90;;;;;;5110398;28;20114;-80
2023/08/20 06:08:42;;;;;;;13.15;8.10;;;23.30;99.90;;;;;;5128087;27;20082;-83
2023/08/20 06:11:07;;;;;;;13.43;8.48;;;23.90;99.90;;;;;;5114103;27;20039;-81
2023/08/20 06:13:33;;;;;;;10.55;9.38;;;24.50;99.90;;;;;;5113617;27;20027;-81
2023/08/20 06:15:58;;;;;;;10.02;7.60;;;24.90;99.90;;;;;;5149147;27;20396;-81
2023/08/20 06:18:24;;;;;;;10.07;8.07;;;25.40;99.90;;;;;;5130989;27;20405;-81
2023/08/20 06:20:50;;;;;;;9.75;8.80;;;25.80;99.90;;;;;;5130839;27;20126;-81
2023/08/20 06:23:15;;;;;;;10.73;8.82;;;26.10;99.90;;;;;;5129881;27;20078;-81
2023/08/20 06:25:41;;;;;;;11.15;8.95;;;26.40;99.90;;;;;;5149579;27;20096;-81
2023/08/20 06:28:09;;;;;;;11.63;7.45;;;26.80;99.90;;;;;;5130359;27;20039;-81
2023/08/20 06:30:35;;;;;;;57.33;52.63;;;27.00;99.90;;;;;;5112956;27;20030;-82
2023/08/20 06:33:01;;;;;;;125.75;113.57;;;27.40;99.90;;;;;;5113580;27;20096;-81
2023/08/20 06:35:26;;;;;;;109.05;97.80;;;27.50;99.90;;;;;;5148836;27;20035;-82
2023/08/20 06:37:52;;;;;;;422.55;355.15;;;28.00;99.90;;;;;;5112660;27;20530;-82
2023/08/20 06:40:18;;;;;;;422.27;377.35;;;28.30;99.90;;;;;;5113691;27;20043;-82
2023/08/20 06:42:43;;;;;;;658.80;464.20;;;28.50;99.90;;;;;;5130878;27;20570;-81
2023/08/20 06:45:09;;;;;;;1201.43;787.88;;;28.70;99.90;;;;;;5148700;27;20046;-82
2023/08/20 06:47:35;;;;;;;1999.90;999.90;;;28.80;99.90;;;;;;5113331;27;20039;-81
2023/08/20 06:50:01;;;;;;;1999.90;999.90;;;29.10;99.90;;;;;;5130545;27;20162;-81
2023/08/20 06:52:26;;;;;;;1999.90;985.63;;;29.40;99.90;;;;;;5111860;27;20047;-81
2023/08/20 06:54:52;;;;;;;1999.90;938.70;;;29.50;99.90;;;;;;5134641;27;20039;-81
2023/08/20 06:57:17;;;;;;;1646.50;423.48;;;29.70;99.90;;;;;;5134094;27;20038;-80
2023/08/20 06:59:43;;;;;;;1770.15;811.83;;;29.50;99.90;;;;;;5152137;27;20074;-80
2023/08/20 07:02:10;;;;;;;1999.90;562.83;;;28.70;99.90;;;;;;5152677;27;20062;-80
2023/08/20 07:04:35;;;;;;;1839.85;701.10;;;27.70;99.90;;;;;;5133978;27;20042;-80
2023/08/20 07:07:01;;;;;;;1803.07;884.90;;;26.70;99.90;;;;;;5133328;27;20050;-80
2023/08/20 07:09:27;;;;;;;1284.88;779.53;;;25.90;99.90;;;;;;5152697;27;20510;-80
2023/08/20 07:11:52;;;;;;;1317.53;609.47;;;25.30;99.90;;;;;;5133719;27;20138;-80
2023/08/20 07:14:18;;;;;;;622.47;401.52;;;24.80;99.90;;;;;;5133350;27;20100;-80
2023/08/20 07:16:44;;;;;;;267.38;116.38;;;24.40;99.90;;;;;;5152413;27;20035;-79
2023/08/20 07:19:09;;;;;;;270.38;129.00;;;24.00;99.90;;;;;;5152431;27;20508;-79
2023/08/20 07:21:35;;;;;;;217.38;110.30;;;23.70;99.90;;;;;;5124303;27;20050;-79
2023/08/20 07:24:00;;;;;;;155.95;103.47;;;23.50;99.90;;;;;;5130422;27;20131;-80
2023/08/20 07:26:26;;;;;;;93.43;64.93;;;23.30;99.90;;;;;;5131470;27;20035;-80
2023/08/20 07:28:58;;;;;;;54.22;43.17;;;23.20;99.90;;;;;;5112705;27;20049;-79
2023/08/20 07:31:31;;;;;;;30.88;27.50;;;23.00;99.90;;;;;;5113042;27;20035;-79
2023/08/20 07:34:00;;;;;;;27.02;23.95;;;22.90;99.90;;;;;;5112880;27;20511;-80
2023/08/20 07:36:26;;;;;;;21.70;17.33;;;22.90;99.90;;;;;;5105329;27;20038;-79
2023/08/20 07:38:53;;;;;;;20.55;13.25;;;22.80;99.90;;;;;;5133161;27;20062;-79
2023/08/20 07:41:19;;;;;;;16.02;12.93;;;22.70;99.90;;;;;;5133381;27;20073;-79
2023/08/20 07:43:46;;;;;;;24.20;20.52;;;22.70;99.90;;;;;;5133077;27;20396;-79
2023/08/20 07:46:12;;;;;;;24.77;22.23;;;22.70;99.90;;;;;;5133129;27;20047;-77
2023/08/20 07:48:38;;;;;;;23.85;21.48;;;22.80;99.90;;;;;;5116010;27;20034;-77
2023/08/20 07:51:04;;;;;;;37.25;33.60;;;23.40;99.90;;;;;;5133558;27;20369;-80
2023/08/20 07:53:30;;;;;;;69.18;55.28;;;24.40;99.90;;;;;;5133077;27;20498;-79
2023/08/20 07:55:57;;;;;;;97.65;82.68;;;25.40;99.90;;;;;;5151918;27;20070;-81
2023/08/20 07:58:22;;;;;;;131.38;93.28;;;25.50;99.90;;;;;;5132597;27;20073;-80
2023/08/20 08:00:48;;;;;;;137.57;93.93;;;25.20;99.90;;;;;;5132943;27;20062;-80
2023/08/20 08:03:17;;;;;;;90.85;68.07;;;24.70;99.90;;;;;;5151210;27;20039;-80
2023/08/20 08:05:50;;;;;;;88.30;78.60;;;24.30;99.90;;;;;;5129809;27;20432;-80
2023/08/20 08:08:19;;;;;;;84.50;72.07;;;24.00;99.90;;;;;;5130657;27;20055;-80
2023/08/20 08:10:46;;;;;;;57.08;48.40;;;23.70;99.90;;;;;;5112362;27;20032;-80
2023/08/20 08:13:16;;;;;;;70.00;63.08;;;23.90;99.90;;;;;;5111599;27;20039;-80
2023/08/20 08:15:42;;;;;;;78.10;70.25;;;24.90;99.90;;;;;;5095107;27;20085;-80
2023/08/20 08:18:08;;;;;;;172.43;153.35;;;26.20;99.90;;;;;;5129239;27;20427;-80
2023/08/20 08:20:34;;;;;;;249.48;221.70;;;27.00;99.90;;;;;;5094946;27;20039;-81
2023/08/20 08:23:00;;;;;;;552.08;494.10;;;27.80;99.90;;;;;;5125140;27;20055;-80
2023/08/20 08:25:27;;;;;;;441.00;395.55;;;28.50;99.90;;;;;;5151761;27;20043;-81
2023/08/20 08:27:53;;;;;;;1103.72;868.13;;;28.70;99.90;;;;;;5151105;27;20160;-79
2023/08/20 08:30:21;;;;;;;1642.07;995.60;;;28.90;99.90;;;;;;5115866;27;20070;-81
2023/08/20 08:32:46;;;;;;;1999.90;999.90;;;29.00;99.90;;;;;;5151157;27;20034;-79
2023/08/20 08:35:12;;;;;;;1999.90;999.90;;;28.80;99.90;;;;;;5131818;27;20526;-80
2023/08/20 08:37:38;;;;;;;1999.90;999.90;;;28.60;99.90;;;;;;5148176;27;20049;-80
2023/08/20 08:40:08;;;;;;;1999.90;999.90;;;28.10;99.90;;;;;;5125613;27;20038;-79
2023/08/20 08:42:33;;;;;;;1999.90;986.67;;;27.60;99.90;;;;;;5148950;27;20444;-79
2023/08/20 08:45:00;;;;;;;1999.90;972.65;;;27.30;99.90;;;;;;5149622;27;20078;-79
2023/08/20 08:47:26;;;;;;;1999.90;919.97;;;27.10;99.90;;;;;;5148971;27;20130;-79
2023/08/20 08:49:54;;;;;;;1999.90;691.53;;;26.80;99.90;;;;;;5148876;27;20503;-79
2023/08/20 08:52:22;;;;;;;1999.90;809.15;;;26.40;99.90;;;;;;5130964;27;20127;-80
2023/08/20 08:54:48;;;;;;;1999.90;417.58;;;26.30;99.90;;;;;;5130666;27;20034;-80
2023/08/20 08:57:14;;;;;;;1857.60;434.02;;;26.10;99.90;;;;;;5148412;27;20030;-80
2023/08/20 08:59:41;;;;;;;1999.90;785.33;;;26.00;99.90;;;;;;5149702;27;20446;-82
2023/08/20 09:02:10;;;;;;;1999.90;763.45;;;26.00;99.90;;;;;;5131036;27;20125;-81
2023/08/20 09:04:40;;;;;;;1798.18;807.88;;;26.20;99.90;;;;;;5129936;27;20083;-81
2023/08/20 09:07:10;;;;;;;1999.90;547.80;;;26.10;99.90;;;;;;5102758;27;20476;-82
2023/08/20 09:09:36;;;;;;;1906.38;320.40;;;26.60;99.90;;;;;;5130184;27;20070;-80
2023/08/20 09:12:16;;;;;;;1999.90;999.90;;;27.10;99.90;;;;;;5148653;27;20043;-80
2023/08/20 09:14:49;;;;;;;1999.90;999.90;;;27.60;99.90;;;;;;5130209;27;20039;-81
2023/08/20 09:17:15;;;;;;;1999.90;999.90;;;28.20;99.90;;;;;;5113205;27;20053;-80
2023/08/20 09:19:44;;;;;;;1999.90;999.90;;;28.70;99.90;;;;;;5113618;27;20034;-80
2023/08/20 09:22:11;;;;;;;1999.90;999.90;;;29.30;99.90;;;;;;5139865;27;20050;-79
2023/08/20 09:24:51;;;;;;;1999.90;999.90;;;29.60;99.90;;;;;;5130911;27;20047;-79
2023/08/20 09:27:17;;;;;;;1999.90;999.90;;;29.80;99.90;;;;;;5150241;27;20122;-80
2023/08/20 09:29:54;;;;;;;1999.90;999.90;;;29.90;99.90;;;;;;5131360;27;20114;-79
2023/08/20 09:32:22;;;;;;;1999.90;999.90;;;30.10;99.90;;;;;;5131548;27;20043;-79
2023/08/20 09:34:55;;;;;;;1999.90;999.90;;;30.10;99.90;;;;;;5113217;27;20039;-80
2023/08/20 09:37:23;;;;;;;1999.90;999.90;;;30.40;99.90;;;;;;5132262;27;20050;-79
2023/08/20 09:39:49;;;;;;;1999.90;999.90;;;30.20;99.90;;;;;;5148890;27;20059;-79
2023/08/20 09:42:15;;;;;;;1999.90;999.90;;;30.00;99.90;;;;;;5131155;27;20047;-79
2023/08/20 09:44:43;;;;;;;1999.90;999.90;;;29.50;99.90;;;;;;5113225;27;20043;-80
2023/08/20 09:47:13;;;;;;;1999.90;999.90;;;28.70;99.90;;;;;;5161107;27;20039;-79
2023/08/20 09:49:44;;;;;;;1999.90;999.90;;;27.80;99.90;;;;;;5113189;27;20126;-79
2023/08/20 09:52:15;;;;;;;1999.90;999.90;;;27.00;99.90;;;;;;5130958;27;20038;-80
2023/08/20 09:55:03;;;;;;;1999.90;999.90;;;26.40;99.90;;;;;;5130644;27;20042;-79
2023/08/20 09:57:33;;;;;;;1999.90;999.90;;;26.00;99.90;;;;;;5131212;27;20047;-79
2023/08/20 10:00:00;;;;;;;1686.43;773.63;;;25.70;99.90;;;;;;5130829;27;20038;-78
2023/08/20 10:02:26;;;;;;;1999.90;617.10;;;25.70;99.90;;;;;;5149527;27;20050;-79
2023/08/20 10:04:52;;;;;;;1999.90;453.92;;;25.70;99.90;;;;;;5131005;27;20129;-79
2023/08/20 10:07:18;;;;;;;1999.90;999.90;;;25.80;99.90;;;;;;5130997;27;20039;-79
2023/08/20 10:09:46;;;;;;;1999.90;999.90;;;25.90;99.90;;;;;;5149121;27;20476;-79
2023/08/20 10:12:13;;;;;;;1999.90;790.30;;;25.70;99.90;;;;;;5131057;27;20118;-79
2023/08/20 10:14:40;;;;;;;1999.90;999.90;;;25.80;99.90;;;;;;5121467;27;20124;-80
2023/08/20 10:17:11;;;;;;;1929.00;456.48;;;25.90;99.90;;;;;;5110645;28;20049;-80
2023/08/20 10:19:37;;;;;;;1999.90;999.90;;;25.90;99.90;;;;;;5111316;28;20039;-80
2023/08/20 10:22:04;;;;;;;1999.90;999.90;;;26.00;99.90;;;;;;5128532;28;20067;-80
2023/08/20 10:24:41;;;;;;;1999.90;999.90;;;26.10;99.90;;;;;;5092890;28;20099;-80
2023/08/20 10:27:09;;;;;;;1999.90;999.90;;;26.10;99.90;;;;;;5131207;27;20357;-80
2023/08/20 10:29:39;;;;;;;1999.90;999.90;;;26.30;99.90;;;;;;5097639;27;20441;-79
2023/08/20 10:32:14;;;;;;;1592.63;762.00;;;26.20;99.90;;;;;;5114384;27;20047;-79
2023/08/20 10:34:49;;;;;;;1999.90;840.35;;;25.90;99.90;;;;;;5146295;27;20027;-80
2023/08/20 10:37:15;;;;;;;1956.07;336.23;;;26.00;99.90;;;;;;5113453;27;20065;-79
2023/08/20 10:39:45;;;;;;;1999.90;999.90;;;26.10;99.90;;;;;;5132642;27;20774;-80
2023/08/20 10:42:19;;;;;;;1780.18;782.88;;;26.20;99.90;;;;;;5097338;27;20427;-79
2023/08/20 10:45:00;;;;;;;1999.90;999.90;;;26.20;99.90;;;;;;5130880;27;20070;-80
2023/08/20 10:47:41;;;;;;;1999.90;999.90;;;26.30;99.90;;;;;;5148562;27;20126;-80
2023/08/20 10:50:10;;;;;;;1999.90;999.90;;;26.30;99.90;;;;;;5099504;27;20047;-81
2023/08/20 10:52:54;;;;;;;1999.90;999.90;;;26.40;99.90;;;;;;5115484;27;20035;-82
2023/08/20 10:55:23;;;;;;;1999.90;999.90;;;26.50;99.90;;;;;;5116379;27;20043;-82
2023/08/20 10:57:59;;;;;;;1999.90;999.90;;;26.50;99.90;;;;;;5132960;27;20050;-82
2023/08/20 11:00:25;;;;;;;1999.90;999.90;;;26.30;99.90;;;;;;5133758;27;20042;-82
2023/08/20 11:02:53;;;;;;;1999.90;999.90;;;26.50;99.90;;;;;;5152023;27;20043;-82
2023/08/20 11:05:21;;;;;;;1999.90;999.90;;;26.70;99.90;;;;;;5115095;27;20027;-83
2023/08/20 11:07:47;;;;;;;1999.90;999.90;;;26.80;99.90;;;;;;5127752;27;20057;-82
2023/08/20 11:10:17;;;;;;;1999.90;999.90;;;26.90;99.90;;;;;;5134003;27;20038;-82
2023/08/20 11:12:46;;;;;;;1999.90;999.90;;;27.00;99.90;;;;;;5150072;27;20074;-83
2023/08/20 11:15:12;;;;;;;1999.90;999.90;;;27.10;99.90;;;;;;5133008;27;20499;-83
2023/08/20 11:17:42;;;;;;;1999.90;999.90;;;27.00;99.90;;;;;;5115531;27;20049;-84
2023/08/20 11:20:11;;;;;;;1999.90;999.90;;;26.80;99.90;;;;;;5133303;27;20076;-83
2023/08/20 11:22:37;;;;;;;1999.90;999.90;;;26.60;99.90;;;;;;5151546;27;20058;-83
2023/08/20 11:25:04;;;;;;;1999.90;999.90;;;26.10;99.90;;;;;;5130343;27;20049;-83
2023/08/20 11:27:30;;;;;;;1999.90;999.90;;;26.20;99.90;;;;;;5129141;27;20031;-83
2023/08/20 11:29:57;;;;;;;1999.90;999.90;;;26.30;99.90;;;;;;5112246;27;20098;-82
2023/08/20 11:32:23;;;;;;;1999.90;999.90;;;26.30;99.90;;;;;;5095428;27;20035;-83
2023/08/20 11:34:49;;;;;;;1999.90;999.90;;;26.30;99.90;;;;;;5111913;27;20098;-83
2023/08/20 11:37:23;;;;;;;1999.90;999.90;;;26.50;99.90;;;;;;5119696;27;20050;-83
2023/08/20 11:39:49;;;;;;;1999.90;999.90;;;26.50;99.90;;;;;;5133767;27;20041;-83
2023/08/20 11:42:15;;;;;;;1999.90;999.90;;;26.70;99.90;;;;;;5116637;27;20614;-83
2023/08/20 11:44:46;;;;;;;1999.90;999.90;;;26.80;99.90;;;;;;5116296;27;20034;-83
2023/08/20 11:47:16;;;;;;;1999.90;999.90;;;26.80;99.90;;;;;;5152256;27;20043;-83
2023/08/20 11:49:42;;;;;;;1999.90;999.90;;;26.80;99.90;;;;;;5132817;27;20039;-82
2023/08/20 11:52:09;;;;;;;1999.90;999.90;;;26.90;99.90;;;;;;5133526;27;20507;-83
2023/08/20 11:54:35;;;;;;;1999.90;999.90;;;27.00;99.90;;;;;;5116145;27;20122;-82
2023/08/20 11:57:05;;;;;;;1999.90;999.90;;;27.10;99.90;;;;;;5116866;27;20130;-83
2023/08/20 11:59:31;;;;;;;1999.90;999.90;;;27.10;99.90;;;;;;5133282;27;20041;-82
2023/08/20 12:02:03;;;;;;;1999.90;999.90;;;26.80;99.90;;;;;;5133252;27;20045;-83
2023/08/20 12:04:29;;;;;;;1999.90;999.90;;;26.90;99.90;;;;;;5151452;27;20484;-83
2023/08/20 12:07:08;;;;;;;1999.90;999.90;;;27.00;99.90;;;;;;5127747;27;20642;-83
2023/08/20 12:09:35;;;;;;;1999.90;999.90;;;27.20;99.90;;;;;;5112560;27;20031;-83
2023/08/20 12:12:01;;;;;;;1999.90;999.90;;;27.30;99.90;;;;;;5095744;27;20035;-83
2023/08/20 12:14:27;;;;;;;1999.90;999.90;;;27.40;99.90;;;;;;5112770;27;20042;-83
2023/08/20 12:16:56;;;;;;;1999.90;999.90;;;27.30;99.90;;;;;;5112688;27;20385;-83
2023/08/20 12:19:22;;;;;;;1999.90;999.90;;;27.50;99.90;;;;;;5129345;27;20393;-83